Jackson, South Carolina
Current Conditions -  °F | °C
As of 7:12 PM on Sunday 23 Nov 2014 (Local Time) from KAGS Reporting Station
Thunderstorm Thunderstorm  
Wind Chill: 69°   Ceiling: 2800
Heat Index: 69°   Visibility: 4mi
Dew Point: 66°   Wind: 13mph
Humidity: 90%   Direction: 230°SW
Pressure: 29.8"   Gusts: 24mph
Location:  33.33°N, 81.79°W
Report Text: KAGS 240012Z 23011G21KT 4SM VCTS -RA BR SCT017 BKN028 OVC100 21/19 A2980 RMK AO2 PK WND 21032/0002 LTG DSNT E AND SE TSE07 P0012 T02060189
Loading
Personal Weather Stations






























Interactive Weather Map New forecast layout! Learn more

10-Day Weather Forecast

Advertisements
Track Severe Weather on mobile